createdAt,value
2016-11-13T20:04:42.625Z,18.53
2016-11-13T20:05:54.598Z,18.08
2016-11-13T20:07:05.225Z,17.97
2016-11-13T20:08:16.497Z,17.79
2016-11-13T20:08:49.616Z,17.71
2016-11-13T20:10:01.390Z,17.59
2016-11-13T20:11:11.446Z,17.49
2016-11-13T20:12:21.977Z,17.45
2016-11-13T20:13:33.195Z,17.76
2016-11-13T20:14:45.559Z,17.76
2016-11-13T20:15:57.893Z,17.65
2016-11-13T20:17:08.587Z,17.44
2016-11-13T20:18:19.823Z,17.26
2016-11-13T20:19:30.889Z,17.08
2016-11-13T20:20:41.511Z,17.02
2016-11-13T20:21:52.820Z,17.02
2016-11-13T20:23:03.495Z,16.99
2016-11-13T20:24:15.273Z,16.87
2016-11-13T20:25:26.698Z,16.81
2016-11-13T20:26:39.401Z,16.86
2016-11-13T20:27:49.054Z,16.81
2016-11-13T20:29:00.006Z,16.86
2016-11-13T20:30:11.444Z,16.78
2016-11-13T20:31:21.872Z,16.79
2016-11-13T20:32:34.498Z,16.64
2016-11-13T20:33:46.439Z,16.66
2016-11-13T20:34:58.496Z,16.6
2016-11-13T20:36:09.251Z,16.66
2016-11-13T20:37:21.799Z,16.71
2016-11-13T20:38:33.436Z,16.6
2016-11-13T20:39:45.302Z,16.61
2016-11-13T20:40:55.572Z,16.65
2016-11-13T20:42:05.643Z,16.5
2016-11-13T20:43:17.321Z,16.57
2016-11-13T20:44:28.376Z,16.56
2016-11-13T20:45:39.997Z,16.5
2016-11-13T20:46:50.315Z,16.41
2016-11-13T20:48:01.913Z,16.43
2016-11-13T20:49:13.718Z,16.5
2016-11-13T20:50:25.227Z,16.46
2016-11-13T20:51:36.086Z,16.42
2016-11-13T20:52:46.328Z,16.5
2016-11-13T20:53:57.493Z,16.49
2016-11-13T20:55:09.055Z,16.5
2016-11-13T20:56:20.648Z,16.39
2016-11-13T20:57:32.579Z,16.43
2016-11-13T20:58:44.794Z,16.43
2016-11-13T20:59:56.425Z,16.42
2016-11-13T21:01:07.709Z,16.46
2016-11-13T21:02:19.353Z,16.47
2016-11-13T21:03:30.675Z,16.5
2016-11-13T21:04:42.912Z,16.51
2016-11-13T21:05:54.606Z,16.66
2016-11-13T21:07:05.805Z,16.58
2016-11-13T21:08:17.735Z,16.66
2016-11-13T21:09:29.174Z,16.71
2016-11-13T21:10:40.607Z,16.56
2016-11-13T21:11:52.617Z,16.64
2016-11-13T21:13:04.565Z,16.68
2016-11-13T21:14:15.562Z,16.53
2016-11-13T21:15:25.763Z,16.6
2016-11-13T21:16:37.494Z,16.94
2016-11-13T21:17:49.235Z,16.86
2016-11-13T21:19:01.939Z,16.89
2016-11-13T21:20:14.711Z,16.75
2016-11-13T21:21:27.601Z,16.64
2016-11-13T21:22:40.235Z,16.6
2016-11-13T21:23:52.005Z,16.6
2016-11-13T21:25:03.277Z,16.68
2016-11-13T21:26:15.124Z,16.56
2016-11-13T21:27:26.967Z,16.61
2016-11-13T21:28:39.096Z,16.83
2016-11-13T21:29:51.072Z,16.89
2016-11-13T21:31:02.300Z,16.99
2016-11-13T21:32:12.492Z,16.86
2016-11-13T21:33:23.811Z,16.79
2016-11-13T21:34:35.690Z,16.69
2016-11-13T21:35:46.315Z,16.74
2016-11-13T21:36:57.238Z,16.79
2016-11-13T21:38:07.957Z,16.94
2016-11-13T21:39:18.555Z,16.69
2016-11-13T21:40:30.499Z,16.66
2016-11-13T21:41:43.135Z,16.6
2016-11-13T21:42:55.331Z,16.96
2016-11-13T21:44:06.901Z,16.97
2016-11-13T21:45:18.205Z,17.01
2016-11-13T21:46:29.730Z,16.86
2016-11-13T21:47:40.784Z,16.96
2016-11-13T21:48:52.798Z,16.86
2016-11-13T21:50:04.115Z,16.93
2016-11-13T21:51:15.689Z,16.74
2016-11-13T21:52:27.148Z,16.75
2016-11-13T21:53:38.565Z,16.6
2016-11-13T21:54:49.810Z,16.65
2016-11-13T21:56:01.058Z,16.54
2016-11-13T21:57:13.682Z,16.39
2016-11-13T21:58:24.917Z,16.42
2016-11-13T21:59:36.535Z,16.46
2016-11-13T22:00:47.670Z,16.35
2016-11-13T22:01:59.125Z,16.36
2016-11-13T22:03:11.749Z,16.41
2016-11-13T22:04:23.850Z,16.39
2016-11-13T22:05:34.848Z,16.32
2016-11-13T22:06:46.273Z,16.35
2016-11-13T22:07:57.413Z,16.38
2016-11-13T22:09:09.329Z,16.28
2016-11-13T22:10:19.649Z,16.2
2016-11-13T22:11:31.858Z,16.15
2016-11-13T22:12:43.797Z,16.13
2016-11-13T22:13:53.752Z,16.29
2016-11-13T22:15:04.726Z,16.28
2016-11-13T22:16:15.878Z,16.2
2016-11-13T22:17:28.267Z,16.39
2016-11-13T22:18:39.427Z,16.21
2016-11-13T22:19:50.707Z,16.2
2016-11-13T22:21:03.488Z,16.04
2016-11-13T22:22:14.045Z,16.08
2016-11-13T22:23:26.436Z,16.05
2016-11-13T22:24:38.934Z,16.01
2016-11-13T22:25:51.597Z,16.04
2016-11-13T22:27:03.633Z,16.2
2016-11-13T22:28:14.881Z,16.15
2016-11-13T22:29:27.397Z,16.04
2016-11-13T22:30:40.652Z,15.98
2016-11-13T22:31:51.985Z,16.04
2016-11-13T22:33:04.657Z,16.17
2016-11-13T22:34:17.275Z,16.04
2016-11-13T22:35:29.683Z,16.09
2016-11-13T22:36:41.891Z,16.09
2016-11-13T22:37:53.441Z,16.09
2016-11-13T22:39:04.531Z,16.08
2016-11-13T22:40:15.669Z,16.29
2016-11-13T22:41:27.770Z,16.39
2016-11-13T22:42:38.302Z,16.24
2016-11-13T22:43:48.595Z,16.21
2016-11-13T22:45:00.373Z,16.04
2016-11-13T22:46:11.567Z,16.08
2016-11-13T22:47:22.737Z,16.1
2016-11-13T22:48:34.644Z,16.17
2016-11-13T22:49:45.137Z,16.08
2016-11-13T22:50:58.512Z,16.05
2016-11-13T22:52:10.086Z,16.12
2016-11-13T22:53:21.683Z,16.01
2016-11-13T22:54:33.617Z,16.02
2016-11-13T22:55:45.943Z,15.9
2016-11-13T22:56:57.036Z,15.94
2016-11-13T22:58:10.313Z,15.9
2016-11-13T22:59:22.356Z,15.95
2016-11-13T23:00:33.663Z,16.04
2016-11-13T23:01:46.251Z,15.9
2016-11-13T23:02:58.909Z,15.88
2016-11-13T23:04:10.961Z,15.95
2016-11-13T23:05:22.723Z,15.97
2016-11-13T23:06:35.494Z,15.94
2016-11-13T23:07:47.959Z,15.98
2016-11-13T23:08:59.741Z,16
2016-11-13T23:10:10.759Z,16.01
2016-11-13T23:11:22.101Z,15.98
2016-11-13T23:12:33.735Z,16.05
2016-11-13T23:13:45.538Z,15.97
2016-11-13T23:14:56.440Z,15.97
2016-11-13T23:16:07.417Z,15.86
2016-11-13T23:17:18.463Z,15.75
2016-11-13T23:18:30.211Z,15.59
2016-11-13T23:19:42.498Z,15.54
2016-11-13T23:20:55.115Z,15.57
2016-11-13T23:22:07.160Z,15.47
2016-11-13T23:23:18.197Z,15.8
2016-11-13T23:24:29.709Z,15.58
2016-11-13T23:25:41.321Z,15.72
2016-11-13T23:26:52.466Z,15.73
2016-11-13T23:28:04.223Z,15.59
2016-11-13T23:29:16.378Z,15.52
2016-11-13T23:30:27.845Z,15.52
2016-11-13T23:31:39.819Z,15.52
2016-11-13T23:32:51.555Z,15.4
2016-11-13T23:34:03.391Z,15.39
2016-11-13T23:35:13.969Z,15.37
2016-11-13T23:36:25.653Z,15.42
2016-11-13T23:37:37.337Z,15.43
2016-11-13T23:38:49.421Z,15.47
2016-11-13T23:40:02.105Z,15.33
2016-11-13T23:41:13.782Z,15.37
2016-11-13T23:42:26.454Z,15.51
2016-11-13T23:43:38.687Z,15.4
2016-11-13T23:44:50.795Z,15.44
2016-11-13T23:46:00.792Z,15.39
2016-11-13T23:47:12.812Z,15.4
2016-11-13T23:48:25.587Z,15.37
2016-11-13T23:49:37.679Z,15.25
2016-11-13T23:50:50.294Z,15.36
2016-11-13T23:52:02.424Z,15.36
2016-11-13T23:53:13.813Z,15.36
2016-11-13T23:54:26.395Z,15.35
2016-11-13T23:55:38.491Z,15.36
2016-11-13T23:56:50.874Z,15.24
2016-11-13T23:58:01.237Z,15.27
2016-11-13T23:59:13.025Z,15.24
